Historique des mesures à Cassis (13260), France
Quotidien Résumé Mars 15, 2021 Unités:  Métrique    US   Métrique/US
Quotidien Hebdomadaire Mensuel Annuel
  Maximum: Minimum: Moyenne:
Température: 13.3 °C 11.2 °C 12.2 °C
Point de rosée: 10.3 °C 8 °C 9.1 °C
Humidité: 84% 77% 81%
Vitesse du vent: 19.1km/h 0km/h 7.6km/h
Rafales: 29.5km/h - -
Vent- - WNW
Pression: 1013.5 hPa 1008.9 hPa -
Précipitations: 2.0 mm    
Historical Graphs
 
 
Mesures pour : Mars 15, 2021
Heure Temperature Point de rosée Pression Vent Vitesse du vent Rafales Humidité Pluie (par heure)
00:11 12.3 °C 9 °C 1010.3 hPa NW 9.7 km/h 16.9 km/h 80% 0.0 mm
01:10 12.4 °C 8.9 °C 1010.5 hPa NW 9.7 km/h 17.3 km/h 79% 0.0 mm
02:11 11.9 °C 8.9 °C 1010.0 hPa WNW 4 km/h 23.4 km/h 82% 0.5 mm
03:10 11.9 °C 8.6 °C 1009.4 hPa NW 10.1 km/h 25.2 km/h 80% 0.0 mm
04:11 11.9 °C 8.4 °C 1009.4 hPa NW 9 km/h 18.4 km/h 79% 0.0 mm
05:10 11.9 °C 8 °C 1009.3 hPa WNW 15.5 km/h 19.4 km/h 77% 0.0 mm
06:11 11.7 °C 8.2 °C 1009.5 hPa NW 19.1 km/h 20.5 km/h 79% 0.5 mm
07:10 11.2 °C 8.1 °C 1008.9 hPa SSW 5.4 km/h 5.4 km/h 81% 0.0 mm
08:11 11.4 °C 8.3 °C 1009.6 hPa NNW 3.6 km/h 8.6 km/h 81% 0.0 mm
09:10 11.4 °C 8.4 °C 1010.7 hPa NNW 6.8 km/h 12.2 km/h 82% 0.0 mm
10:11 12.1 °C 8.8 °C 1010.6 hPa Calm   3.2 km/h 80% 0.0 mm
11:10 13.1 °C 9.9 °C 1010.8 hPa Calm   4 km/h 81% 0.0 mm
12:11 13.3 °C 10.1 °C 1010.9 hPa North 6.5 km/h 8.6 km/h 81% 0.0 mm
13:10 13.2 °C 10.3 °C 1011.2 hPa Calm   5.4 km/h 83% 0.0 mm
14:11 12.9 °C 9.7 °C 1011.1 hPa West 2.2 km/h 11.5 km/h 81% 0.0 mm
15:10 12.7 °C 10 °C 1010.9 hPa WNW 5.4 km/h 7.2 km/h 84% 0.5 mm
16:11 12.4 °C 9.2 °C 1010.9 hPa NW 16.6 km/h 29.5 km/h 81% 0.5 mm
17:10 12.6 °C 8.9 °C 1011.5 hPa NW 15.8 km/h 19.8 km/h 78% 0.0 mm
18:11 11.8 °C 9 °C 1012.3 hPa NW 16.6 km/h 22.7 km/h 83% 0.0 mm
19:10 11.9 °C 9.3 °C 1012.9 hPa WNW 11.9 km/h 19.1 km/h 84% 0.0 mm
20:11 12.2 °C 9.4 °C 1013.1 hPa WNW 1.4 km/h 9.4 km/h 83% 0.0 mm
21:10 12.3 °C 9.5 °C 1013.4 hPa West 2.2 km/h 9.7 km/h 83% 0.0 mm
22:11 12.5 °C 9.7 °C 1013.4 hPa WNW 3.6 km/h 13 km/h 83% 0.0 mm
23:10 12.9 °C 9.7 °C 1013.5 hPa WNW 8.3 km/h 13 km/h 81% 0.0 mm
Observations météo à CASSIS
WU-History script by Weather Underground - 2 mb